Time;durP1;ratioP1;P1;durP2;ratioP2;P2;SDS_P1;SDS_P2;PMS_P1;PMS_P2;Temp;Humidity;BMP_temperature;BMP_pressure;BME280_temperature;BME280_humidity;BME280_pressure;Samples;Min_cycle;Max_cycle;Signal;HPM_P1;HPM_P2
2021/05/11 00:01:11;;;;;;;3.22;0.30;;;;;;;8.16;74.95;99370.59;6162440;23;20012;-76
2021/05/11 00:03:46;;;;;;;1.60;0.40;;;;;;;8.25;74.79;99385.28;6187132;23;20013;-78
2021/05/11 00:06:12;;;;;;;0.65;0.22;;;;;;;8.02;74.37;99354.03;6159516;23;20001;-77
2021/05/11 00:08:37;;;;;;;1.30;0.57;;;;;;;8.14;75.22;99379.03;6159051;23;20012;-79
2021/05/11 00:11:03;;;;;;;0.60;0.20;;;;;;;8.14;74.88;99383.69;6185032;23;20063;-77
2021/05/11 00:13:32;;;;;;;0.10;0.10;;;;;;;7.98;74.57;99369.28;6161960;23;20417;-77
2021/05/11 00:16:00;;;;;;;0.40;0.20;;;;;;;8.02;74.61;99381.25;6161346;23;20001;-77
2021/05/11 00:18:36;;;;;;;0.10;0.10;;;;;;;8.10;74.19;99388.84;6163480;23;20159;-78
2021/05/11 00:21:05;;;;;;;1.60;0.80;;;;;;;8.03;74.96;99380.97;6139816;23;20013;-77
2021/05/11 00:23:30;;;;;;;2.15;0.30;;;;;;;7.96;74.08;99376.91;6159170;23;20009;-75
2021/05/11 00:25:56;;;;;;;0.28;0.28;;;;;;;8.00;74.56;99378.81;6102852;23;20420;-75
2021/05/11 00:28:21;;;;;;;3.40;0.45;;;;;;;8.02;74.44;99376.59;6138892;23;20009;-76
2021/05/11 00:30:47;;;;;;;2.00;0.68;;;;;;;8.00;75.28;99372.53;6131948;23;20016;-75
2021/05/11 00:33:12;;;;;;;9.68;2.03;;;;;;;7.96;74.77;99361.38;6134874;23;20005;-75
2021/05/11 00:35:38;;;;;;;4.38;1.58;;;;;;;8.08;75.71;99380.16;6183151;23;20428;-74
2021/05/11 00:38:03;;;;;;;2.58;0.88;;;;;;;8.09;75.91;99380.94;6135065;23;20012;-74
2021/05/11 00:40:29;;;;;;;1.40;0.70;;;;;;;8.08;75.21;99385.59;6157168;23;20048;-74
2021/05/11 00:42:54;;;;;;;3.63;1.00;;;;;;;8.04;75.70;99384.50;6158206;23;20013;-74
2021/05/11 00:45:20;;;;;;;2.88;1.52;;;;;;;8.10;76.17;99394.28;6132095;23;20028;-74
2021/05/11 00:47:45;;;;;;;1.42;0.88;;;;;;;8.15;76.46;99393.50;6133855;23;20328;-74
2021/05/11 00:50:11;;;;;;;3.47;1.00;;;;;;;8.14;75.85;99384.47;6130654;23;20012;-74
2021/05/11 00:52:38;;;;;;;2.97;0.70;;;;;;;8.13;76.15;99380.16;6134683;23;20433;-75
2021/05/11 00:55:05;;;;;;;2.30;1.00;;;;;;;8.17;76.34;99388.56;6156500;23;20331;-74
2021/05/11 00:57:32;;;;;;;1.40;0.88;;;;;;;8.20;77.00;99382.56;6159491;23;20012;-74
2021/05/11 00:59:58;;;;;;;1.05;0.55;;;;;;;8.18;76.43;99380.13;6151428;23;20041;-75
2021/05/11 01:02:24;;;;;;;5.60;0.80;;;;;;;8.19;76.56;99378.19;6190563;23;20012;-78
2021/05/11 01:04:50;;;;;;;1.30;0.80;;;;;;;8.17;76.55;99377.69;6157225;23;20005;-77
2021/05/11 01:07:15;;;;;;;1.95;0.77;;;;;;;8.15;76.33;99375.22;6156890;23;20063;-78
2021/05/11 01:09:41;;;;;;;2.72;0.85;;;;;;;8.13;77.19;99371.97;6132754;23;20355;-78
2021/05/11 01:12:09;;;;;;;0.75;0.50;;;;;;;8.07;76.80;99361.34;6182000;23;20348;-77
2021/05/11 01:14:35;;;;;;;3.72;0.75;;;;;;;8.04;77.04;99363.56;6135674;23;20404;-76
2021/05/11 01:17:02;;;;;;;0.57;0.40;;;;;;;8.07;77.13;99362.16;6156215;23;20005;-74
2021/05/11 01:33:00;;;;;;;6.55;0.80;;;;;;;8.23;77.67;99386.66;6165050;23;20005;-77
2021/05/11 02:23:56;;;;;;;5.07;0.75;;;;;;;8.53;77.20;99364.78;6162250;23;20047;-77
2021/05/11 02:26:21;;;;;;;3.45;1.60;;;;;;;8.53;77.07;99364.78;6181238;23;20084;-77
2021/05/11 02:28:48;;;;;;;3.03;0.60;;;;;;;8.59;77.66;99372.97;6131674;23;20431;-76
2021/05/11 02:31:13;;;;;;;2.45;0.63;;;;;;;8.58;77.57;99365.88;6132309;23;20009;-76
2021/05/11 02:33:38;;;;;;;2.08;0.68;;;;;;;8.63;77.35;99360.38;6133107;23;20043;-78
2021/05/11 02:36:05;;;;;;;2.72;0.65;;;;;;;8.63;77.50;99352.22;6133820;23;20012;-77
2021/05/11 02:38:32;;;;;;;1.00;0.40;;;;;;;8.64;77.06;99356.56;6131653;23;20086;-78
2021/05/11 02:41:01;;;;;;;4.38;0.38;;;;;;;8.58;77.29;99341.34;6183812;23;19997;-77
2021/05/11 02:43:33;;;;;;;0.73;0.40;;;;;;;8.68;77.11;99352.19;6152884;23;20493;-77
2021/05/11 02:46:09;;;;;;;;;;;;;;;;;;;;;
2021/05/11 02:48:35;;;;;;;5.50;1.30;;;;;;;8.51;77.32;99326.13;6182354;23;20084;-77
2021/05/11 02:51:00;;;;;;;1.40;1.00;;;;;;;8.52;76.99;99327.72;6179871;23;20035;-77
2021/05/11 02:53:25;;;;;;;1.08;0.47;;;;;;;8.52;77.12;99330.47;6127561;23;20004;-78
2021/05/11 02:55:51;;;;;;;0.47;0.20;;;;;;;8.51;77.73;99323.41;6183143;23;20009;-78
2021/05/11 02:58:16;;;;;;;1.23;0.43;;;;;;;8.56;77.76;99319.84;6157356;23;20013;-77
2021/05/11 03:00:42;;;;;;;1.15;0.60;;;;;;;8.55;77.02;99313.53;6150738;23;20321;-76
2021/05/11 03:03:13;;;;;;;1.92;0.60;;;;;;;8.64;76.64;99332.06;6132841;23;20020;-76
2021/05/11 03:05:39;;;;;;;2.00;0.57;;;;;;;8.48;77.36;99312.22;6157242;23;20015;-76
2021/05/11 03:08:04;;;;;;;1.15;0.40;;;;;;;8.44;77.11;99317.44;6176255;23;20032;-76
2021/05/11 03:10:29;;;;;;;3.33;0.50;;;;;;;8.41;77.17;99334.31;6177805;23;20009;-77
2021/05/11 03:12:58;;;;;;;1.27;0.60;;;;;;;8.33;77.14;99332.16;6154795;23;20084;-76
2021/05/11 03:15:23;;;;;;;0.50;0.30;;;;;;;8.21;77.58;99325.09;6155457;23;20449;-75
2021/05/11 03:17:54;;;;;;;0.43;0.35;;;;;;;8.27;76.73;99333.25;6168433;23;20005;-76
2021/05/11 03:20:20;;;;;;;0.60;0.30;;;;;;;8.18;76.96;99331.09;6131583;23;20013;-77
2021/05/11 03:22:45;;;;;;;0.73;0.20;;;;;;;8.17;77.88;99329.47;6151412;23;20009;-78
2021/05/11 03:25:13;;;;;;;0.65;0.25;;;;;;;8.31;77.39;99339.75;6186262;23;20009;-78
2021/05/11 03:27:39;;;;;;;1.52;0.25;;;;;;;8.33;77.49;99326.69;6158560;23;20009;-76
2021/05/11 03:30:05;;;;;;;0.10;0.10;;;;;;;8.43;77.82;99337.56;6158477;23;20020;-75
2021/05/11 03:32:31;;;;;;;0.55;0.32;;;;;;;8.50;77.52;99343.56;6158009;23;19997;-76
2021/05/11 03:34:58;;;;;;;0.75;0.25;;;;;;;8.50;77.65;99340.84;6131428;23;20032;-76
2021/05/11 03:37:26;;;;;;;1.13;0.55;;;;;;;8.52;77.44;99340.56;6156095;23;20009;-75
2021/05/11 03:39:52;;;;;;;0.43;0.20;;;;;;;8.56;76.78;99336.19;6160200;23;20408;-75
2021/05/11 03:42:22;;;;;;;0.20;0.10;;;;;;;8.53;77.47;99345.72;6135169;23;20019;-76
2021/05/11 03:44:52;;;;;;;0.55;0.10;;;;;;;8.47;77.01;99360.47;6164683;23;20031;-76
2021/05/11 03:47:20;;;;;;;0.98;0.20;;;;;;;8.41;76.82;99353.38;6119503;23;20012;-77
2021/05/11 03:49:55;;;;;;;0.20;0.10;;;;;;;8.34;76.89;99347.41;6169482;23;20013;-77
2021/05/11 03:52:25;;;;;;;0.50;0.25;;;;;;;8.25;76.45;99339.00;6154297;23;20005;-76
2021/05/11 03:54:50;;;;;;;0.52;0.10;;;;;;;8.18;76.71;99339.28;6149424;23;20001;-78
2021/05/11 03:57:16;;;;;;;1.25;0.28;;;;;;;8.09;76.95;99343.66;6157715;23;20020;-78
2021/05/11 03:59:44;;;;;;;1.83;0.20;;;;;;;8.01;77.01;99333.31;6136717;23;20455;-78
2021/05/11 04:02:14;;;;;;;0.57;0.22;;;;;;;7.99;77.38;99330.06;6155516;23;20074;-75
2021/05/11 04:04:39;;;;;;;5.68;0.30;;;;;;;7.94;77.35;99339.03;6159176;23;20059;-78
2021/05/11 04:07:14;;;;;;;2.65;0.10;;;;;;;7.92;77.00;99345.88;6157610;23;20036;-78
2021/05/11 04:09:48;;;;;;;1.65;0.30;;;;;;;7.88;77.67;99342.06;6185233;23;20068;-79
2021/05/11 04:17:46;;;;;;;1.73;0.20;;;;;;;7.89;76.51;99339.06;6157763;23;20153;-78
2021/05/11 04:20:12;;;;;;;0.50;0.30;;;;;;;7.80;77.20;99333.34;6189687;23;20013;-78
2021/05/11 04:22:38;;;;;;;1.83;0.40;;;;;;;7.86;76.56;99356.75;6162043;23;20064;-78
2021/05/11 04:25:04;;;;;;;2.42;0.60;;;;;;;7.85;76.93;99355.13;6194564;23;20009;-78
2021/05/11 04:27:30;;;;;;;2.38;0.30;;;;;;;7.85;76.81;99355.13;6195850;23;20005;-78
2021/05/11 04:29:59;;;;;;;1.15;0.70;;;;;;;7.81;77.30;99354.06;6161456;23;20008;-78
2021/05/11 04:32:25;;;;;;;1.13;0.47;;;;;;;7.78;77.69;99342.88;6136053;23;20009;-78
2021/05/11 04:35:00;;;;;;;0.55;0.35;;;;;;;7.86;77.81;99362.19;6183725;23;20663;-77
2021/05/11 04:37:28;;;;;;;0.97;0.50;;;;;;;7.84;77.52;99358.94;6135735;23;20339;-78
2021/05/11 04:39:53;;;;;;;0.75;0.40;;;;;;;7.92;78.34;99371.19;6185995;23;20001;-78
2021/05/11 04:42:19;;;;;;;1.33;0.40;;;;;;;7.95;77.70;99372.53;6185077;23;20016;-78
2021/05/11 04:44:48;;;;;;;2.15;0.52;;;;;;;7.97;78.17;99373.91;6160712;23;20336;-77
2021/05/11 04:47:20;;;;;;;0.20;0.20;;;;;;;8.03;77.85;99374.69;6152303;23;20438;-78
2021/05/11 04:49:47;;;;;;;0.57;0.30;;;;;;;7.93;77.38;99355.66;6159350;23;20009;-78
2021/05/11 04:52:13;;;;;;;0.90;0.45;;;;;;;8.04;77.74;99362.72;6109324;23;20116;-79
2021/05/11 04:54:41;;;;;;;0.98;0.60;;;;;;;8.20;77.92;99367.03;6147985;23;20035;-77
2021/05/11 04:57:07;;;;;;;1.33;0.35;;;;;;;8.41;78.17;99377.91;6158709;23;20004;-78
2021/05/11 04:59:32;;;;;;;0.40;0.25;;;;;;;8.43;76.89;99364.81;6134078;23;20020;-78
2021/05/11 05:02:00;;;;;;;2.38;0.85;;;;;;;8.55;77.07;99381.66;6150342;23;20040;-79
2021/05/11 05:04:25;;;;;;;0.30;0.20;;;;;;;8.51;77.02;99363.44;6158522;23;20009;-77
2021/05/11 05:07:03;;;;;;;;;;;;;;;;;;;;;
2021/05/11 05:09:58;;;;;;;1.10;0.38;;;;;;;8.73;77.22;99395.78;6155870;23;20068;-78
2021/05/11 05:12:56;;;;;;;;;;;;;;;;;;;;;
2021/05/11 05:15:59;;;;;;;1.45;0.17;;;;;;;8.83;76.87;99384.81;6193726;23;20035;-77
2021/05/11 05:18:32;;;;;;;1.42;0.32;;;;;;;8.87;76.83;99379.66;6194711;23;20056;-80
2021/05/11 05:21:09;;;;;;;1.00;0.50;;;;;;;8.89;76.33;99375.56;6154291;23;20085;-77
2021/05/11 05:23:39;;;;;;;1.48;0.30;;;;;;;8.98;76.64;99380.41;6158924;23;20044;-76
2021/05/11 05:26:10;;;;;;;0.70;0.40;;;;;;;9.07;76.82;99390.44;6156213;23;20005;-77
2021/05/11 05:28:39;;;;;;;3.55;0.50;;;;;;;9.18;76.17;99406.75;6159854;23;20005;-78
2021/05/11 05:31:07;;;;;;;0.55;0.30;;;;;;;9.22;76.80;99414.09;6154086;23;20084;-77
2021/05/11 05:33:37;;;;;;;0.75;0.32;;;;;;;9.25;76.58;99413.50;6184099;23;20005;-77
2021/05/11 05:36:04;;;;;;;2.72;0.30;;;;;;;9.31;76.88;99413.50;6169797;23;20021;-77
2021/05/11 05:38:30;;;;;;;0.47;0.30;;;;;;;9.40;76.33;99419.97;6183231;23;20012;-76
2021/05/11 05:40:59;;;;;;;0.43;0.13;;;;;;;9.49;76.17;99422.91;6157813;23;20084;-78
2021/05/11 05:43:25;;;;;;;2.92;0.10;;;;;;;9.55;75.72;99417.16;6160485;23;20009;-81
2021/05/11 05:45:52;;;;;;;0.77;0.13;;;;;;;9.68;75.94;99420.34;6156796;23;20087;-79
2021/05/11 05:48:18;;;;;;;0.35;0.20;;;;;;;9.80;76.05;99423.53;6158663;23;20017;-78
2021/05/11 05:50:44;;;;;;;0.52;0.20;;;;;;;9.88;76.12;99436.56;6158065;23;20365;-79
2021/05/11 05:53:14;;;;;;;0.00;0.00;;;;;;;9.95;75.71;99436.25;6183759;23;19993;-79
2021/05/11 05:55:41;;;;;;;0.20;0.20;;;;;;;10.03;75.25;99443.00;6134722;23;20005;-80
2021/05/11 05:58:07;;;;;;;0.47;0.20;;;;;;;10.07;75.08;99441.31;6156172;23;20009;-79
2021/05/11 06:00:32;;;;;;;0.57;0.28;;;;;;;10.11;75.65;99445.13;6104601;23;20075;-79
2021/05/11 06:03:06;;;;;;;0.60;0.35;;;;;;;10.17;75.27;99443.97;6157073;23;20016;-79
2021/05/11 06:05:32;;;;;;;0.55;0.28;;;;;;;10.24;74.86;99441.72;6146509;23;20005;-79
2021/05/11 06:07:58;;;;;;;0.28;0.20;;;;;;;10.35;75.70;99438.91;6158646;23;20024;-79
2021/05/11 06:10:26;;;;;;;0.63;0.22;;;;;;;10.49;74.73;99434.41;6182338;23;20009;-79
2021/05/11 06:12:54;;;;;;;0.70;0.10;;;;;;;10.62;74.78;99444.63;6157005;23;20380;-79
2021/05/11 06:18:04;;;;;;;0.08;0.08;;;;;;;10.94;74.28;99448.66;6140102;23;20020;-75
2021/05/11 06:20:29;;;;;;;0.60;0.20;;;;;;;10.99;74.17;99443.13;6184249;23;20013;-79
2021/05/11 06:22:55;;;;;;;0.30;0.30;;;;;;;10.95;73.84;99428.41;6133658;23;20682;-78
2021/05/11 06:25:20;;;;;;;0.93;0.38;;;;;;;11.03;73.49;99442.53;6158951;23;20082;-77
2021/05/11 06:27:46;;;;;;;0.82;0.30;;;;;;;11.04;73.71;99446.88;6154293;23;20431;-78
2021/05/11 06:30:18;;;;;;;0.32;0.22;;;;;;;11.09;73.43;99442.16;6156517;23;20009;-78
2021/05/11 06:32:43;;;;;;;0.38;0.22;;;;;;;11.11;73.15;99450.06;6153941;23;20420;-77
2021/05/11 06:35:12;;;;;;;0.45;0.20;;;;;;;11.24;73.22;99449.34;6133718;23;20092;-78
2021/05/11 06:37:46;;;;;;;0.00;0.00;;;;;;;11.45;73.50;99449.09;6133378;23;20024;-78
2021/05/11 06:40:13;;;;;;;0.43;0.20;;;;;;;11.64;72.78;99460.84;6157654;23;20031;-78
2021/05/11 06:42:39;;;;;;;0.28;0.20;;;;;;;11.78;72.31;99446.41;6134431;23;20017;-77
2021/05/11 06:45:18;;;;;;;0.90;0.50;;;;;;;11.98;72.44;99454.31;6187145;23;20011;-78
2021/05/11 06:47:59;;;;;;;4.32;0.93;;;;;;;12.12;72.39;99448.06;6187926;23;20013;-76
2021/05/11 06:55:39;;;;;;;1.33;0.60;;;;;;;12.66;71.12;99454.78;6155871;23;20013;-75
2021/05/11 06:58:16;;;;;;;0.40;0.25;;;;;;;12.81;71.23;99458.34;6138186;23;20009;-76
2021/05/11 07:00:43;;;;;;;1.35;0.50;;;;;;;12.82;70.47;99451.72;6166785;23;20001;-80
2021/05/11 07:03:08;;;;;;;5.28;0.80;;;;;;;12.83;69.82;99456.91;6189577;23;20001;-77
2021/05/11 07:05:35;;;;;;;1.20;0.40;;;;;;;12.86;70.02;99467.25;6139323;23;20013;-76
2021/05/11 07:08:10;;;;;;;0.65;0.30;;;;;;;13.02;70.34;99466.97;6165558;23;20008;-77
2021/05/11 07:10:37;;;;;;;2.85;0.68;;;;;;;13.16;69.30;99475.22;6164005;23;20032;-78
2021/05/11 07:13:10;;;;;;;0.65;0.47;;;;;;;13.31;69.50;99471.31;6167753;23;20008;-78
2021/05/11 07:15:40;;;;;;;1.58;0.45;;;;;;;13.42;69.61;99459.84;6142017;23;20329;-77
2021/05/11 07:18:09;;;;;;;4.40;0.80;;;;;;;13.65;68.84;99475.53;6188057;23;20012;-80
2021/05/11 07:20:43;;;;;;;1.30;0.70;;;;;;;13.72;68.38;99481.44;6163564;23;20014;-77
2021/05/11 07:23:09;;;;;;;5.43;1.00;;;;;;;13.65;67.85;99470.84;6141891;23;20081;-78
2021/05/11 07:25:41;;;;;;;1.75;0.65;;;;;;;13.68;67.69;99481.25;6191245;23;20104;-79
2021/05/11 07:28:31;;;;;;;1.20;0.55;;;;;;;13.86;67.90;99475.91;6163548;23;20035;-77
2021/05/11 07:30:52;;;;;;;1.85;0.77;;;;;;;14.14;66.80;99485.63;6157860;23;20005;-76
2021/05/11 07:33:21;;;;;;;2.83;1.08;;;;;;;14.19;65.63;99475.63;6154084;23;20020;-77
2021/05/11 07:35:59;;;;;;;4.65;0.80;;;;;;;14.18;65.94;99479.50;6156942;23;20025;-76
2021/05/11 07:38:25;;;;;;;2.85;0.60;;;;;;;14.17;66.47;99467.69;6155943;23;20005;-78
2021/05/11 07:40:52;;;;;;;0.75;0.60;;;;;;;14.32;66.29;99472.81;6149027;23;20013;-77
2021/05/11 07:43:22;;;;;;;0.63;0.30;;;;;;;14.38;65.54;99472.69;6159586;23;20045;-76
2021/05/11 07:48:47;;;;;;;1.52;0.50;;;;;;;14.26;65.37;99478.75;6142427;23;20031;-77
2021/05/11 08:02:01;;;;;;;1.20;0.47;;;;;;;13.04;66.14;99482.03;6174676;23;20032;-76
2021/05/11 08:15:29;;;;;;;2.53;1.58;;;;;;;12.85;68.11;99475.81;6176660;23;20016;-76
2021/05/11 08:18:07;;;;;;;1.23;0.35;;;;;;;12.95;68.28;99467.38;6156245;23;20071;-75
2021/05/11 08:21:47;;;;;;;4.57;0.82;;;;;;;13.08;67.93;99472.06;6160255;23;20013;-76
2021/05/11 08:23:31;;;;;;;1.10;0.40;;;;;;;13.24;68.41;99469.81;6175318;23;20009;-76
2021/05/11 08:28:43;;;;;;;3.03;0.90;;;;;;;13.83;68.37;99462.75;6183399;23;20016;-78
2021/05/11 08:31:08;;;;;;;4.38;1.38;;;;;;;14.29;67.98;99464.38;6180987;23;20076;-77
2021/05/11 08:33:34;;;;;;;3.88;1.00;;;;;;;14.80;67.14;99478.75;6127490;23;20052;-76
2021/05/11 08:36:00;;;;;;;1.25;0.77;;;;;;;15.24;66.47;99465.13;6158145;23;20091;-76
2021/05/11 08:38:26;;;;;;;1.85;0.70;;;;;;;15.84;65.28;99460.84;6132084;23;20016;-74
2021/05/11 08:40:51;;;;;;;2.85;0.88;;;;;;;16.28;62.91;99471.81;6157017;23;20001;-76
2021/05/11 08:43:45;;;;;;;2.20;0.57;;;;;;;16.46;61.49;99470.66;6180972;23;20020;-77
2021/05/11 08:46:11;;;;;;;7.07;1.58;;;;;;;16.19;59.91;99467.16;6150329;23;20462;-76
2021/05/11 08:48:37;;;;;;;2.17;0.70;;;;;;;15.66;62.57;99476.53;6153893;23;20080;-76
2021/05/11 09:04:57;;;;;;;5.00;1.10;;;;;;;12.88;78.31;99467.78;6182925;23;20039;-77
2021/05/11 09:24:57;;;;;;;0.85;0.50;;;;;;;12.52;78.26;99476.69;6156823;23;20084;-79
2021/05/11 09:27:40;;;;;;;3.53;0.50;;;;;;;12.82;78.70;99468.19;6160550;23;20028;-78
2021/05/11 09:30:35;;;;;;;5.93;0.45;;;;;;;13.13;77.93;99467.56;6157094;23;20084;-77
2021/05/11 09:33:19;;;;;;;9.55;1.00;;;;;;;13.23;77.17;99473.66;6157039;23;19997;-78
2021/05/11 10:48:38;;;;;;;1.83;0.40;;;;;;;22.76;34.69;99500.03;6192058;23;20039;-75
2021/05/11 10:51:16;;;;;;;2.88;0.60;;;;;;;22.68;32.77;99520.63;6177172;23;20015;-75
2021/05/11 10:53:59;;;;;;;2.50;0.98;;;;;;;23.22;35.38;99492.84;6185548;23;20029;-76
2021/05/11 10:56:44;;;;;;;1.38;0.40;;;;;;;24.15;32.44;99505.34;6153762;23;20012;-77
2021/05/11 11:01:51;;;;;;;1.65;0.50;;;;;;;24.97;30.78;99503.81;6179806;23;19914;-76
2021/05/11 11:04:21;;;;;;;1.08;0.57;;;;;;;25.31;30.99;99507.31;6179829;23;20009;-75
2021/05/11 11:09:28;;;;;;;0.40;0.25;;;;;;;26.39;30.53;99495.88;6179946;23;20439;-75
2021/05/11 11:11:54;;;;;;;0.50;0.40;;;;;;;26.22;28.71;99492.59;6132807;23;20096;-76
2021/05/11 11:14:20;;;;;;;0.68;0.43;;;;;;;26.26;28.12;99507.44;6157593;23;20478;-76
2021/05/11 11:16:46;;;;;;;0.70;0.20;;;;;;;26.33;26.88;99503.03;6180877;23;20001;-76
2021/05/11 11:19:13;;;;;;;1.00;0.47;;;;;;;26.49;27.27;99506.31;6158469;23;20083;-75
2021/05/11 11:22:02;;;;;;;1.23;0.13;;;;;;;27.45;27.85;99504.00;6159918;23;20035;-77
2021/05/11 11:24:29;;;;;;;3.92;0.30;;;;;;;27.94;24.60;99519.09;6157770;23;20088;-74
2021/05/11 11:26:57;;;;;;;1.77;0.65;;;;;;;27.88;24.07;99515.13;6183897;23;20032;-75
2021/05/11 11:29:23;;;;;;;0.60;0.30;;;;;;;27.89;23.15;99530.78;6180271;23;20046;-76
2021/05/11 11:31:52;;;;;;;1.13;0.40;;;;;;;27.57;25.21;99506.38;6182122;23;20005;-76
2021/05/11 11:34:19;;;;;;;0.80;0.40;;;;;;;27.40;25.38;99521.25;6181193;23;20020;-76
2021/05/11 11:36:47;;;;;;;1.45;0.60;;;;;;;28.18;26.20;99513.81;6157817;23;20005;-76
2021/05/11 11:39:21;;;;;;;3.63;0.57;;;;;;;28.83;24.94;99521.94;6181461;23;20408;-76
2021/05/11 11:41:49;;;;;;;0.68;0.30;;;;;;;28.49;22.87;99536.56;6158173;23;20013;-76
2021/05/11 11:44:18;;;;;;;1.27;0.47;;;;;;;26.76;24.43;99501.16;6183287;23;20056;-76
2021/05/11 11:46:50;;;;;;;5.53;0.50;;;;;;;25.71;26.01;99511.16;6183830;23;20018;-76
2021/05/11 11:49:18;;;;;;;3.33;1.15;;;;;;;25.77;25.97;99506.81;6154711;23;20009;-76
2021/05/11 11:51:44;;;;;;;2.08;0.68;;;;;;;26.43;26.38;99496.66;6159294;23;20063;-76
2021/05/11 11:54:28;;;;;;;1.05;0.52;;;;;;;26.82;25.39;99490.34;6133882;23;20012;-76
2021/05/11 11:59:35;;;;;;;2.20;0.88;;;;;;;26.67;25.15;99511.94;6194872;23;20019;-75
2021/05/11 12:02:05;;;;;;;1.08;0.45;;;;;;;27.10;25.08;99494.38;6155853;23;20001;-75
2021/05/11 12:04:31;;;;;;;0.95;0.40;;;;;;;26.88;23.30;99532.84;6183921;23;20040;-74
2021/05/11 12:07:05;;;;;;;1.40;0.50;;;;;;;26.87;23.91;99504.00;6183132;23;20001;-76
2021/05/11 12:09:31;;;;;;;1.40;0.60;;;;;;;27.32;24.05;99484.75;6177775;23;20429;-76
2021/05/11 12:12:00;;;;;;;2.15;0.60;;;;;;;26.79;23.98;99496.78;6153473;23;20488;-76
2021/05/11 12:14:26;;;;;;;6.70;0.73;;;;;;;27.07;23.89;99503.59;6159676;23;20458;-75
2021/05/11 12:16:52;;;;;;;1.38;0.80;;;;;;;27.50;23.77;99498.78;6156419;23;20009;-75
2021/05/11 12:19:20;;;;;;;0.80;0.38;;;;;;;28.45;23.32;99491.59;6184939;23;20400;-77
2021/05/11 12:21:48;;;;;;;0.90;0.40;;;;;;;29.62;23.42;99510.00;6131557;23;20016;-76
2021/05/11 12:24:14;;;;;;;0.77;0.40;;;;;;;29.42;21.50;99501.34;6156937;23;20119;-76
2021/05/11 12:26:45;;;;;;;1.23;0.47;;;;;;;29.24;20.23;99507.16;6158005;23;20016;-76
2021/05/11 12:29:16;;;;;;;1.33;0.65;;;;;;;29.29;20.97;99506.69;6156812;23;20001;-75
2021/05/11 12:31:47;;;;;;;1.70;0.50;;;;;;;28.14;21.31;99501.78;6177790;23;20067;-75
2021/05/11 12:34:15;;;;;;;1.10;0.40;;;;;;;27.21;22.19;99495.16;6182522;23;20036;-76
2021/05/11 12:36:48;;;;;;;3.03;0.77;;;;;;;26.24;23.13;99501.44;6154074;23;20009;-76
2021/05/11 12:39:30;;;;;;;6.15;0.80;;;;;;;25.53;23.82;99496.28;6156690;23;20008;-74
2021/05/11 12:42:15;;;;;;;0.80;0.30;;;;;;;26.55;23.84;99498.31;6158247;23;20009;-75
2021/05/11 12:44:40;;;;;;;1.60;0.50;;;;;;;27.16;23.01;99495.56;6178104;23;20388;-75
2021/05/11 12:47:09;;;;;;;1.95;0.55;;;;;;;27.78;23.58;99493.50;6132757;23;20013;-74
2021/05/11 12:49:35;;;;;;;1.25;0.43;;;;;;;28.73;22.56;99524.38;6172358;23;20032;-75
2021/05/11 12:52:03;;;;;;;0.82;0.40;;;;;;;29.42;20.65;99513.41;6157357;23;20013;-74
2021/05/11 12:54:41;;;;;;;1.10;0.75;;;;;;;29.17;19.57;99512.81;6174995;23;20732;-75
2021/05/11 12:57:21;;;;;;;2.50;0.70;;;;;;;28.17;20.35;99501.00;6159471;23;20064;-75
2021/05/11 13:27:38;;;;;;;0.43;0.38;;;;;;;28.54;21.01;99482.72;6180735;23;20035;-75
2021/05/11 13:35:22;;;;;;;3.40;0.35;;;;;;;27.19;22.01;99489.16;6176458;23;20021;-75
2021/05/11 13:37:48;;;;;;;0.30;0.20;;;;;;;27.91;21.07;99480.59;6167224;23;20009;-76
2021/05/11 13:40:13;;;;;;;1.00;0.43;;;;;;;28.47;20.18;99463.06;6159200;23;20011;-77
2021/05/11 13:42:42;;;;;;;1.52;0.43;;;;;;;28.63;20.05;99465.41;6191505;23;20400;-78
2021/05/11 13:45:08;;;;;;;0.60;0.50;;;;;;;28.46;19.51;99453.03;6183184;23;20432;-78
2021/05/11 13:47:34;;;;;;;4.53;0.40;;;;;;;28.71;19.57;99487.44;6184946;23;20340;-78
2021/05/11 13:50:02;;;;;;;3.70;0.63;;;;;;;28.75;19.99;99481.78;6157572;23;20012;-78
2021/05/11 13:52:37;;;;;;;3.60;0.30;;;;;;;29.05;19.38;99478.31;6131741;23;20379;-77
2021/05/11 13:55:09;;;;;;;1.48;0.65;;;;;;;29.38;18.71;99473.22;6156936;23;20063;-77
2021/05/11 14:07:39;;;;;;;;;;;;;;;;;;;;;
2021/05/11 14:21:37;;;;;;;;;;;;;;;;;;;;;
2021/05/11 15:31:30;;;;;;;0.30;0.30;;;;;;;12.55;59.87;99376.56;6227754;23;20020;-77
2021/05/11 15:33:59;;;;;;;1.52;0.60;;;;;;;12.00;62.61;99416.50;6200334;23;20007;-76
2021/05/11 15:36:32;;;;;;;2.00;0.40;;;;;;;11.38;63.31;99377.47;6251681;23;20007;-77
2021/05/11 15:39:13;;;;;;;;;;;;;;;;;;;;;
2021/05/11 15:41:46;;;;;;;1.65;0.55;;;;;;;10.77;64.25;99358.06;6229843;23;20075;-78
2021/05/11 15:44:19;;;;;;;1.23;0.63;;;;;;;10.81;65.11;99353.66;6249578;23;20000;-79
2021/05/11 15:46:44;;;;;;;1.95;0.60;;;;;;;11.12;64.55;99380.56;6248069;23;20010;-77
2021/05/11 15:49:15;;;;;;;0.47;0.45;;;;;;;11.07;64.24;99353.28;6225001;23;20426;-77
2021/05/11 15:51:59;;;;;;;0.50;0.30;;;;;;;10.88;63.11;99315.81;6248192;23;20004;-77
2021/05/11 15:54:51;;;;;;;1.23;0.55;;;;;;;10.90;64.91;99362.00;6205575;23;20004;-78
2021/05/11 15:57:34;;;;;;;1.58;0.52;;;;;;;10.60;65.85;99334.75;6220625;23;20011;-78
2021/05/11 16:00:12;;;;;;;0.93;0.40;;;;;;;10.59;67.07;99335.88;6218305;23;20004;-78
2021/05/11 16:02:58;;;;;;;;;;;;;;;;;;;;;
2021/05/11 16:05:24;;;;;;;4.13;0.55;;;;;;;10.59;68.34;99360.47;6199767;23;20375;-79
2021/05/11 16:08:12;;;;;;;2.30;0.65;;;;;;;10.36;68.02;99314.84;6224286;23;20000;-77
2021/05/11 16:10:46;;;;;;;0.40;0.35;;;;;;;10.49;69.23;99357.84;6230323;23;20007;-81
2021/05/11 16:13:14;;;;;;;3.33;0.52;;;;;;;10.39;69.87;99330.66;6233355;23;20028;-80
2021/05/11 16:15:49;;;;;;;2.60;0.40;;;;;;;10.44;70.63;99327.84;6233814;23;20433;-81
2021/05/11 16:18:28;;;;;;;1.48;0.60;;;;;;;10.55;71.37;99329.34;6223379;23;20035;-79
2021/05/11 16:21:01;;;;;;;1.50;0.80;;;;;;;10.57;72.37;99310.75;6219209;23;20007;-79
2021/05/11 16:23:27;;;;;;;0.55;0.40;;;;;;;10.56;72.42;99306.38;6220478;23;20444;-79
2021/05/11 16:25:53;;;;;;;1.38;0.63;;;;;;;10.56;72.35;99328.25;6249386;23;20079;-81
2021/05/11 16:28:30;;;;;;;1.58;0.63;;;;;;;10.52;73.39;99356.47;6221268;23;20026;-80
2021/05/11 16:31:10;;;;;;;;;;;;;;;;;;;;;
2021/05/11 16:33:43;;;;;;;3.13;0.55;;;;;;;10.50;73.90;99340.38;6214263;23;20075;-78
2021/05/11 16:36:09;;;;;;;1.70;0.50;;;;;;;10.56;74.57;99341.91;6207446;23;19997;-79
2021/05/11 16:39:03;;;;;;;2.70;1.00;;;;;;;10.71;75.09;99323.69;6213228;23;20005;-78
2021/05/11 16:41:31;;;;;;;3.30;1.02;;;;;;;10.84;75.36;99325.69;6213716;23;20059;-78
2021/05/11 16:44:06;;;;;;;5.13;0.85;;;;;;;11.04;74.71;99334.72;6217988;23;20012;-78
2021/05/11 16:46:41;;;;;;;6.78;1.20;;;;;;;11.33;75.70;99332.66;6215075;23;20001;-78
2021/05/11 16:49:09;;;;;;;8.40;1.00;;;;;;;12.37;77.15;99321.53;6214473;23;20050;-78
2021/05/11 16:51:37;;;;;;;5.18;1.70;;;;;;;13.34;73.38;99317.78;6218287;23;20415;-77
2021/05/11 16:54:05;;;;;;;2.35;0.70;;;;;;;13.79;69.14;99315.00;6212921;23;20011;-79
2021/05/11 16:56:31;;;;;;;5.85;1.13;;;;;;;13.67;66.92;99331.28;6211605;23;20012;-77
2021/05/11 16:58:58;;;;;;;3.22;0.52;;;;;;;13.48;67.31;99325.13;6189563;23;20066;-78
2021/05/11 17:01:26;;;;;;;4.25;1.00;;;;;;;13.40;67.69;99316.56;6211850;23;20011;-78
2021/05/11 17:03:54;;;;;;;4.55;1.13;;;;;;;13.24;68.19;99326.22;6215271;23;20023;-78
2021/05/11 17:06:28;;;;;;;4.95;1.02;;;;;;;12.97;67.38;99300.50;6211753;23;20012;-77
2021/05/11 17:08:53;;;;;;;4.63;1.40;;;;;;;12.79;68.22;99287.75;6212512;23;20001;-77
2021/05/11 17:11:48;;;;;;;8.68;1.25;;;;;;;12.53;68.12;99275.41;6209277;23;20526;-78
2021/05/11 17:14:41;;;;;;;;;;;;;;;;;;;;;
2021/05/11 17:17:28;;;;;;;5.78;1.10;;;;;;;12.48;67.90;99282.94;6214250;23;20083;-77
2021/05/11 17:20:06;;;;;;;5.50;0.80;;;;;;;12.51;68.94;99309.72;6208049;23;20013;-77
2021/05/11 17:22:35;;;;;;;5.20;0.82;;;;;;;12.36;68.88;99292.47;6216172;23;20004;-78
2021/05/11 17:25:14;;;;;;;;;;;;;;;;;;;;;
2021/05/11 17:27:45;;;;;;;10.20;0.82;;;;;;;12.55;68.51;99297.03;6229481;23;20091;-78
2021/05/11 17:30:12;;;;;;;10.00;1.65;;;;;;;12.70;68.32;99313.19;6244943;23;19996;-77
2021/05/11 17:32:56;;;;;;;8.00;1.52;;;;;;;12.75;68.17;99304.81;6238157;23;20011;-77
2021/05/11 17:35:24;;;;;;;11.40;1.35;;;;;;;13.40;67.24;99335.78;6242216;23;20007;-77
2021/05/11 17:38:00;;;;;;;;;;;;;;;;;;;;;
2021/05/11 17:40:26;;;;;;;10.63;1.80;;;;;;;14.18;62.36;99314.53;6242198;23;20087;-77
2021/05/11 17:42:52;;;;;;;6.93;1.35;;;;;;;13.88;62.22;99328.00;6239739;23;20556;-76